Time;durP1;ratioP1;P1;durP2;ratioP2;P2;SDS_P1;SDS_P2;PMS_P1;PMS_P2;Temp;Humidity;BMP_temperature;BMP_pressure;BME280_temperature;BME280_humidity;BME280_pressure;Samples;Min_cycle;Max_cycle;Signal;HPM_P1;HPM_P2
2021/03/15 00:00:58;;;;;;;;;;;12.00;42.50;;;;;;4949829;28;74511;-69
2021/03/15 00:03:23;;;;;;;;;;;12.00;42.40;;;;;;4950436;28;74988;-70
2021/03/15 00:05:49;;;;;;;;;;;12.00;42.40;;;;;;4951407;28;78676;-75
2021/03/15 00:08:15;;;;;;;;;;;11.90;42.60;;;;;;4952751;28;76531;-75
2021/03/15 00:10:40;;;;;;;;;;;11.90;42.60;;;;;;4952563;28;75394;-76
2021/03/15 00:13:07;;;;;;;;;;;11.90;42.60;;;;;;4952546;28;74956;-72
2021/03/15 00:15:33;;;;;;;;;;;11.90;42.60;;;;;;4953152;28;74722;-74
2021/03/15 00:17:59;;;;;;;;;;;11.90;42.50;;;;;;4952562;28;74933;-71
2021/03/15 00:20:24;;;;;;;;;;;11.90;42.70;;;;;;4953316;28;74363;-71
2021/03/15 00:22:50;;;;;;;;;;;11.80;42.70;;;;;;4952309;28;75121;-73
2021/03/15 00:25:17;;;;;;;;;;;11.80;42.80;;;;;;4951284;28;78429;-71
2021/03/15 00:27:43;;;;;;;;;;;11.80;42.80;;;;;;4952549;28;74474;-72
2021/03/15 00:30:10;;;;;;;;;;;11.70;42.90;;;;;;4952562;28;74998;-72
2021/03/15 00:32:36;;;;;;;;;;;11.70;43.00;;;;;;4952596;28;74495;-72
2021/03/15 00:35:02;;;;;;;;;;;11.60;43.20;;;;;;4952230;28;75201;-71
2021/03/15 00:37:28;;;;;;;;;;;11.60;43.50;;;;;;4952583;28;75065;-71
2021/03/15 00:39:54;;;;;;;;;;;11.60;43.10;;;;;;4952696;28;76619;-71
2021/03/15 00:42:19;;;;;;;;;;;11.60;43.00;;;;;;4952818;28;75196;-71
2021/03/15 00:44:45;;;;;;;;;;;11.60;43.20;;;;;;4952385;28;74875;-72
2021/03/15 00:47:11;;;;;;;;;;;11.60;43.20;;;;;;4950878;28;77296;-75
2021/03/15 00:49:37;;;;;;;;;;;11.60;43.30;;;;;;4952125;28;75148;-73
2021/03/15 00:52:03;;;;;;;;;;;11.60;43.50;;;;;;4952064;28;75680;-76
2021/03/15 00:54:28;;;;;;;;;;;11.60;43.50;;;;;;4952040;28;75822;-74
2021/03/15 00:56:54;;;;;;;;;;;11.50;43.40;;;;;;4950595;28;75791;-75
2021/03/15 00:59:21;;;;;;;;;;;11.40;43.30;;;;;;4950862;28;95628;-73
2021/03/15 01:01:47;;;;;;;;;;;11.40;43.70;;;;;;4952282;28;75306;-71
2021/03/15 01:04:13;;;;;;;;;;;11.40;43.70;;;;;;4952343;28;75163;-72
2021/03/15 01:06:40;;;;;;;;;;;11.30;43.70;;;;;;4952641;28;74743;-70
2021/03/15 01:09:05;;;;;;;;;;;11.30;43.80;;;;;;4950844;28;77761;-72
2021/03/15 01:11:31;;;;;;;;;;;11.30;43.80;;;;;;4952367;28;74882;-71
2021/03/15 01:13:56;;;;;;;;;;;11.20;43.90;;;;;;4949897;28;77650;-72
2021/03/15 01:16:22;;;;;;;;;;;11.20;43.90;;;;;;4952407;28;74613;-76
2021/03/15 01:18:47;;;;;;;;;;;11.20;43.80;;;;;;4952071;28;75126;-75
2021/03/15 01:21:14;;;;;;;;;;;11.10;44.10;;;;;;4950450;28;75485;-73
2021/03/15 01:23:39;;;;;;;;;;;11.10;44.00;;;;;;4952707;28;75146;-73
2021/03/15 01:26:05;;;;;;;;;;;11.10;44.10;;;;;;4950501;28;76963;-76
2021/03/15 01:28:31;;;;;;;;;;;11.00;44.20;;;;;;4952070;28;75119;-73
2021/03/15 01:30:57;;;;;;;;;;;11.00;44.10;;;;;;4950944;28;78461;-80
2021/03/15 01:33:23;;;;;;;;;;;11.00;44.20;;;;;;4951554;28;74378;-82
2021/03/15 01:35:49;;;;;;;;;;;11.00;44.40;;;;;;4950534;28;77254;-80
2021/03/15 01:38:14;;;;;;;;;;;10.90;44.40;;;;;;4950555;28;78565;-79
2021/03/15 01:40:40;;;;;;;;;;;10.90;44.50;;;;;;4950273;28;76332;-80
2021/03/15 01:43:06;;;;;;;;;;;10.90;44.50;;;;;;4949735;28;77576;-75
2021/03/15 01:45:33;;;;;;;;;;;10.90;44.70;;;;;;4950611;28;77183;-79
2021/03/15 01:47:58;;;;;;;;;;;10.90;44.70;;;;;;4952118;28;74677;-70
2021/03/15 01:50:24;;;;;;;;;;;10.90;44.50;;;;;;4951602;28;74795;-80
2021/03/15 01:52:51;;;;;;;;;;;10.90;44.50;;;;;;4951544;28;74382;-73
2021/03/15 01:55:18;;;;;;;;;;;10.80;44.60;;;;;;4951498;28;74587;-74
2021/03/15 01:57:45;;;;;;;;;;;10.80;44.80;;;;;;4952170;28;74681;-76
2021/03/15 02:00:11;;;;;;;;;;;10.70;44.80;;;;;;4951563;28;75162;-72
2021/03/15 02:02:41;;;;;;;;;;;10.70;44.90;;;;;;4949926;28;78021;-71
2021/03/15 02:05:07;;;;;;;;;;;10.70;45.00;;;;;;4951973;28;74499;-74
2021/03/15 02:07:33;;;;;;;;;;;10.70;45.10;;;;;;4951365;28;75413;-76
2021/03/15 02:09:58;;;;;;;;;;;10.70;45.00;;;;;;4951408;28;75136;-74
2021/03/15 02:12:33;;;;;;;;;;;10.60;45.10;;;;;;4951104;28;75079;-78
2021/03/15 02:15:09;;;;;;;;;;;10.60;45.00;;;;;;4951971;28;75651;-74
2021/03/15 02:17:35;;;;;;;;;;;10.60;45.10;;;;;;4951715;28;74905;-74
2021/03/15 02:20:00;;;;;;;;;;;10.60;45.40;;;;;;4951486;28;75169;-76
2021/03/15 02:22:32;;;;;;;;;;;10.60;45.30;;;;;;4951229;28;75219;-75
2021/03/15 02:25:03;;;;;;;;;;;10.50;45.50;;;;;;4951226;28;75670;-71
2021/03/15 02:27:35;;;;;;;;;;;10.40;46.70;;;;;;4950053;28;75393;-74
2021/03/15 02:30:19;;;;;;;;;;;10.40;46.30;;;;;;4950846;28;75221;-71
2021/03/15 02:33:03;;;;;;;;;;;10.40;46.10;;;;;;4951347;28;74463;-73
2021/03/15 02:35:30;;;;;;;;;;;10.40;46.10;;;;;;4951448;28;74595;-73
2021/03/15 02:38:01;;;;;;;;;;;10.30;46.20;;;;;;4951875;28;75339;-74
2021/03/15 02:40:41;;;;;;;;;;;10.30;46.00;;;;;;4952141;28;75727;-73
2021/03/15 02:43:08;;;;;;;;;;;10.20;46.00;;;;;;4952830;28;74636;-73
2021/03/15 02:45:35;;;;;;;;;;;10.20;46.20;;;;;;4952037;28;75141;-80
2021/03/15 02:48:01;;;;;;;;;;;10.20;46.20;;;;;;4949567;28;77979;-78
2021/03/15 02:50:27;;;;;;;;;;;10.10;46.20;;;;;;4950964;28;75205;-72
2021/03/15 02:52:54;;;;;;;;;;;10.10;46.20;;;;;;4949172;28;75684;-72
2021/03/15 02:55:22;;;;;;;;;;;10.10;46.40;;;;;;4949144;28;75379;-72
2021/03/15 02:57:49;;;;;;;;;;;10.00;46.40;;;;;;4948818;28;75283;-73
2021/03/15 03:00:17;;;;;;;;;;;10.10;46.30;;;;;;4950969;28;74619;-70
2021/03/15 03:02:44;;;;;;;;;;;10.00;46.50;;;;;;4949388;28;76446;-69
2021/03/15 03:05:11;;;;;;;;;;;10.00;46.50;;;;;;4948839;28;74771;-73
2021/03/15 03:07:39;;;;;;;;;;;10.00;46.40;;;;;;4950140;28;75266;-75
2021/03/15 03:10:06;;;;;;;;;;;10.00;46.40;;;;;;4950303;28;75245;-77
2021/03/15 03:12:33;;;;;;;;;;;9.90;46.40;;;;;;4950732;28;74486;-77
2021/03/15 03:14:59;;;;;;;;;;;9.90;46.40;;;;;;4950209;28;75183;-72
2021/03/15 03:17:27;;;;;;;;;;;9.90;46.40;;;;;;4950324;28;75034;-78
2021/03/15 03:19:53;;;;;;;;;;;9.90;46.40;;;;;;4951178;28;74352;-69
2021/03/15 03:22:19;;;;;;;;;;;9.90;46.30;;;;;;4948741;28;78093;-70
2021/03/15 03:24:45;;;;;;;;;;;9.90;46.40;;;;;;4949296;28;77199;-68
2021/03/15 03:27:13;;;;;;;;;;;9.90;46.40;;;;;;4950455;28;75130;-69
2021/03/15 03:29:39;;;;;;;;;;;9.90;46.60;;;;;;4950499;28;75206;-75
2021/03/15 03:32:05;;;;;;;;;;;9.90;46.50;;;;;;4949478;28;76309;-75
2021/03/15 03:34:30;;;;;;;;;;;9.90;46.60;;;;;;4950364;28;75078;-67
2021/03/15 03:36:56;;;;;;;;;;;9.90;46.60;;;;;;4950663;28;74450;-69
2021/03/15 03:39:22;;;;;;;;;;;9.80;46.80;;;;;;4951243;28;77495;-68
2021/03/15 03:41:47;;;;;;;;;;;9.80;46.70;;;;;;4953191;28;75017;-68
2021/03/15 03:44:13;;;;;;;;;;;9.70;46.90;;;;;;4952812;28;75296;-69
2021/03/15 03:46:42;;;;;;;;;;;9.70;47.00;;;;;;4951684;28;76423;-77
2021/03/15 03:49:09;;;;;;;;;;;9.70;47.10;;;;;;4953190;28;75316;-72
2021/03/15 03:51:42;;;;;;;;;;;9.60;47.10;;;;;;4952801;28;75072;-70
2021/03/15 03:54:16;;;;;;;;;;;9.60;47.20;;;;;;4952882;28;75160;-67
2021/03/15 03:56:54;;;;;;;;;;;9.60;47.30;;;;;;4951333;28;76440;-70
2021/03/15 03:59:24;;;;;;;;;;;9.50;47.40;;;;;;4953285;28;75226;-72
2021/03/15 04:01:51;;;;;;;;;;;9.50;47.50;;;;;;4952874;28;75196;-69
2021/03/15 04:04:19;;;;;;;;;;;9.50;47.60;;;;;;4951522;28;76877;-70
2021/03/15 04:06:45;;;;;;;;;;;9.50;47.50;;;;;;4951525;28;77516;-67
2021/03/15 04:09:15;;;;;;;;;;;9.40;47.60;;;;;;4951612;28;76271;-74
2021/03/15 04:11:47;;;;;;;;;;;9.40;47.70;;;;;;4951902;28;78631;-70
2021/03/15 04:14:14;;;;;;;;;;;9.40;47.70;;;;;;4951127;28;76789;-67
2021/03/15 04:16:40;;;;;;;;;;;9.40;47.80;;;;;;4951596;28;75731;-77
2021/03/15 04:19:06;;;;;;;;;;;9.40;47.80;;;;;;4951205;28;77627;-70
2021/03/15 04:21:33;;;;;;;;;;;9.40;47.80;;;;;;4952865;28;75096;-74
2021/03/15 04:24:01;;;;;;;;;;;9.30;48.00;;;;;;4952592;28;75206;-70
2021/03/15 04:26:26;;;;;;;;;;;9.30;48.30;;;;;;4951250;28;75763;-66
2021/03/15 04:28:54;;;;;;;;;;;9.30;48.20;;;;;;4951181;28;75408;-65
2021/03/15 04:31:20;;;;;;;;;;;9.30;48.20;;;;;;4952732;28;75165;-72
2021/03/15 04:33:46;;;;;;;;;;;9.30;48.20;;;;;;4951973;28;74470;-66
2021/03/15 04:36:13;;;;;;;;;;;9.30;48.40;;;;;;4954442;28;75109;-67
2021/03/15 04:38:39;;;;;;;;;;;9.20;48.40;;;;;;4956288;28;75790;-76
2021/03/15 04:41:05;;;;;;;;;;;9.20;48.30;;;;;;4953172;28;75125;-76
2021/03/15 04:43:31;;;;;;;;;;;9.20;48.40;;;;;;4952061;28;74729;-75
2021/03/15 04:45:57;;;;;;;;;;;9.20;48.30;;;;;;4950855;28;78227;-78
2021/03/15 04:48:24;;;;;;;;;;;9.10;48.50;;;;;;4951188;28;77403;-76
2021/03/15 04:50:51;;;;;;;;;;;9.20;48.60;;;;;;4949834;28;76452;-75
2021/03/15 04:53:17;;;;;;;;;;;9.10;48.60;;;;;;4952556;28;75217;-70
2021/03/15 04:55:43;;;;;;;;;;;9.10;48.60;;;;;;4950294;28;77528;-75
2021/03/15 04:58:10;;;;;;;;;;;9.10;48.70;;;;;;4950696;28;75861;-70
2021/03/15 05:00:36;;;;;;;;;;;9.00;48.90;;;;;;4951334;28;77262;-67
2021/03/15 05:03:03;;;;;;;;;;;8.90;48.90;;;;;;4952790;28;75006;-67
2021/03/15 05:05:31;;;;;;;;;;;8.90;48.90;;;;;;4952600;28;74633;-69
2021/03/15 05:07:56;;;;;;;;;;;8.90;49.10;;;;;;4952532;28;75152;-69
2021/03/15 05:10:22;;;;;;;;;;;8.90;49.00;;;;;;4951665;28;75318;-69
2021/03/15 05:12:48;;;;;;;;;;;8.90;49.10;;;;;;4950389;28;78455;-68
2021/03/15 05:15:14;;;;;;;;;;;8.80;49.10;;;;;;4952541;28;74440;-73
2021/03/15 05:17:40;;;;;;;;;;;8.80;51.50;;;;;;4950382;28;76400;-71
2021/03/15 05:20:10;;;;;;;;;;;8.60;51.60;;;;;;4951950;28;75185;-71
2021/03/15 05:22:36;;;;;;;;;;;8.50;52.70;;;;;;4950452;28;76444;-67
2021/03/15 05:25:03;;;;;;;;;;;8.30;53.20;;;;;;4950376;28;74810;-70
2021/03/15 05:27:29;;;;;;;;;;;8.20;53.30;;;;;;4951459;28;76565;-74
2021/03/15 05:29:56;;;;;;;;;;;8.00;54.20;;;;;;4951694;28;74500;-72
2021/03/15 05:32:24;;;;;;;;;;;7.90;54.10;;;;;;4952018;28;75055;-76
2021/03/15 05:34:51;;;;;;;;;;;7.90;54.80;;;;;;4951676;28;74468;-74
2021/03/15 05:37:17;;;;;;;;;;;7.80;54.40;;;;;;4951865;28;75175;-72
2021/03/15 05:39:42;;;;;;;;;;;7.80;55.70;;;;;;4950458;28;75986;-69
2021/03/15 05:42:18;;;;;;;;;;;7.70;54.30;;;;;;4952198;28;75367;-74
2021/03/15 05:44:56;;;;;;;;;;;7.70;54.20;;;;;;4950145;28;75505;-66
2021/03/15 05:47:24;;;;;;;;;;;7.80;54.10;;;;;;4951847;28;75746;-67
2021/03/15 05:50:08;;;;;;;;;;;7.70;54.30;;;;;;4952031;28;75162;-74
2021/03/15 05:52:43;;;;;;;;;;;7.70;54.60;;;;;;4950700;28;77579;-73
2021/03/15 05:55:27;;;;;;;;;;;7.70;54.50;;;;;;4951677;28;74608;-70
2021/03/15 05:58:19;;;;;;;;;;;7.70;54.30;;;;;;4951120;28;75644;-66
2021/03/15 06:00:54;;;;;;;;;;;7.70;54.40;;;;;;4950244;28;77226;-66
2021/03/15 06:03:52;;;;;;;;;;;7.80;54.20;;;;;;4949976;28;74877;-66
2021/03/15 06:06:19;;;;;;;;;;;7.70;54.20;;;;;;4961004;28;75025;-75
2021/03/15 06:08:46;;;;;;;;;;;7.70;54.20;;;;;;4951700;28;74442;-69
2021/03/15 06:11:12;;;;;;;;;;;7.70;54.30;;;;;;4951715;28;74486;-70
2021/03/15 06:13:38;;;;;;;;;;;7.70;54.60;;;;;;4950873;28;75328;-69
2021/03/15 06:16:05;;;;;;;;;;;7.70;54.60;;;;;;4949636;28;75369;-69
2021/03/15 06:18:30;;;;;;;;;;;7.70;54.30;;;;;;4951301;28;75676;-68
2021/03/15 06:20:56;;;;;;;;;;;7.70;54.20;;;;;;4950819;28;75621;-68
2021/03/15 06:23:22;;;;;;;;;;;7.70;54.10;;;;;;4951237;28;75226;-68
2021/03/15 06:25:48;;;;;;;;;;;7.70;53.90;;;;;;4949245;28;78269;-73
2021/03/15 06:28:15;;;;;;;;;;;7.80;53.60;;;;;;4949318;28;76549;-67
2021/03/15 06:30:41;;;;;;;;;;;7.90;53.30;;;;;;4950998;28;75066;-68
2021/03/15 06:33:07;;;;;;;;;;;7.90;53.10;;;;;;4950363;28;74975;-68
2021/03/15 06:35:37;;;;;;;;;;;7.90;53.10;;;;;;4930562;28;76289;-68
2021/03/15 06:38:03;;;;;;;;;;;8.00;52.80;;;;;;4926738;28;77905;-71
2021/03/15 06:40:29;;;;;;;;;;;8.00;52.70;;;;;;4924349;28;76052;-69
2021/03/15 06:42:54;;;;;;;;;;;8.00;52.60;;;;;;4923720;28;75012;-70
2021/03/15 06:45:21;;;;;;;;;;;8.00;52.60;;;;;;4930195;28;76637;-67
2021/03/15 06:47:47;;;;;;;;;;;8.00;52.60;;;;;;4927985;28;75914;-67
2021/03/15 06:50:13;;;;;;;;;;;8.00;53.30;;;;;;4921721;28;78225;-69
2021/03/15 06:52:54;;;;;;;;;;;8.00;53.40;;;;;;4929173;28;75892;-67
2021/03/15 06:55:21;;;;;;;;;;;7.90;54.00;;;;;;4927297;28;77945;-70
2021/03/15 06:57:46;;;;;;;;;;;7.90;54.90;;;;;;4928185;28;75614;-68
2021/03/15 07:00:12;;;;;;;;;;;7.80;55.60;;;;;;4922858;28;77587;-68
2021/03/15 07:02:38;;;;;;;;;;;7.70;55.40;;;;;;4925213;28;76270;-69
2021/03/15 07:05:08;;;;;;;;;;;7.60;56.40;;;;;;4926069;28;76673;-70
2021/03/15 07:07:36;;;;;;;;;;;7.50;55.90;;;;;;4919397;28;76112;-69
2021/03/15 07:10:02;;;;;;;;;;;7.60;55.40;;;;;;4923062;28;75916;-74
2021/03/15 07:12:27;;;;;;;;;;;7.60;55.60;;;;;;4922533;28;76037;-65
2021/03/15 07:15:04;;;;;;;;;;;7.60;55.20;;;;;;4928727;28;76753;-67
2021/03/15 07:17:29;;;;;;;;;;;7.70;55.50;;;;;;4918742;28;77639;-67
2021/03/15 07:19:55;;;;;;;;;;;7.80;54.80;;;;;;4932682;28;76716;-65
2021/03/15 07:22:22;;;;;;;;;;;7.90;54.70;;;;;;4934409;28;76090;-66
2021/03/15 07:25:03;;;;;;;;;;;8.00;54.40;;;;;;4920919;28;75933;-67
2021/03/15 07:27:29;;;;;;;;;;;8.00;55.30;;;;;;4930526;28;76536;-69
2021/03/15 07:29:55;;;;;;;;;;;8.00;54.70;;;;;;4928420;28;76804;-67
2021/03/15 07:32:37;;;;;;;;;;;8.10;54.60;;;;;;4935720;28;76149;-66
2021/03/15 07:35:18;;;;;;;;;;;8.10;54.80;;;;;;4931966;28;76302;-68
2021/03/15 07:37:44;;;;;;;;;;;8.10;54.40;;;;;;4927800;28;77985;-68
2021/03/15 07:40:10;;;;;;;;;;;8.10;54.40;;;;;;4915658;28;75588;-62
2021/03/15 07:42:35;;;;;;;;;;;8.20;54.00;;;;;;4925430;28;75753;-61
2021/03/15 07:45:01;;;;;;;;;;;8.40;53.60;;;;;;4934952;28;75061;-62
2021/03/15 07:47:27;;;;;;;;;;;8.40;53.20;;;;;;4919796;28;76425;-66
2021/03/15 07:49:57;;;;;;;;;;;8.60;53.00;;;;;;4920683;28;76235;-63
2021/03/15 07:52:38;;;;;;;;;;;8.70;52.70;;;;;;4929531;28;76110;-70
2021/03/15 07:55:04;;;;;;;;;;;8.90;52.50;;;;;;4936823;28;77561;-68
2021/03/15 07:57:32;;;;;;;;;;;8.90;52.00;;;;;;4926406;28;77379;-62
2021/03/15 07:59:58;;;;;;;;;;;9.00;51.40;;;;;;4920083;28;77178;-61
2021/03/15 08:02:27;;;;;;;;;;;9.20;50.90;;;;;;4933711;28;76640;-61
2021/03/15 08:04:53;;;;;;;;;;;9.30;50.30;;;;;;4933951;28;76496;-61
2021/03/15 08:07:23;;;;;;;;;;;9.40;50.10;;;;;;4917091;28;76045;-61
2021/03/15 08:09:49;;;;;;;;;;;9.50;49.90;;;;;;4923851;28;76321;-62
2021/03/15 08:12:15;;;;;;;;;;;9.60;49.50;;;;;;4933204;28;75981;-61
2021/03/15 08:14:46;;;;;;;;;;;9.70;49.50;;;;;;4922254;28;78108;-64
2021/03/15 08:17:15;;;;;;;;;;;9.80;49.00;;;;;;4926822;28;75703;-61
2021/03/15 08:19:41;;;;;;;;;;;9.80;48.50;;;;;;4918595;28;76689;-62
2021/03/15 08:22:09;;;;;;;;;;;9.90;48.60;;;;;;4931757;28;76535;-67
2021/03/15 08:24:36;;;;;;;;;;;10.00;48.40;;;;;;4921393;28;76389;-62
2021/03/15 08:27:02;;;;;;;;;;;10.00;48.00;;;;;;4923093;28;76408;-62
2021/03/15 08:29:29;;;;;;;;;;;10.10;48.30;;;;;;4920017;28;76378;-66
2021/03/15 08:31:55;;;;;;;;;;;10.20;47.70;;;;;;4919051;28;76110;-61
2021/03/15 08:34:22;;;;;;;;;;;10.20;47.50;;;;;;4921545;28;75755;-63
2021/03/15 08:36:48;;;;;;;;;;;10.30;47.70;;;;;;4927907;28;76209;-62
2021/03/15 08:39:33;;;;;;;;;;;10.40;47.60;;;;;;4935066;28;76504;-64
2021/03/15 08:42:13;;;;;;;;;;;10.50;47.50;;;;;;4936953;28;77150;-61
2021/03/15 08:44:43;;;;;;;;;;;10.50;47.00;;;;;;4934816;28;76438;-65
2021/03/15 08:47:12;;;;;;;;;;;10.70;46.90;;;;;;4933779;28;75770;-72
2021/03/15 08:49:42;;;;;;;;;;;10.70;46.70;;;;;;4921962;28;78438;-70
2021/03/15 08:52:13;;;;;;;;;;;10.80;46.40;;;;;;4928670;28;77865;-69
2021/03/15 08:54:38;;;;;;;;;;;10.80;46.20;;;;;;4923954;28;75713;-65
2021/03/15 08:57:05;;;;;;;;;;;10.90;46.10;;;;;;4923133;28;76384;-76
2021/03/15 08:59:32;;;;;;;;;;;10.90;46.20;;;;;;4926405;28;76076;-72
2021/03/15 09:02:00;;;;;;;;;;;11.00;46.00;;;;;;4928193;28;76219;-62
2021/03/15 09:04:30;;;;;;;;;;;11.10;45.60;;;;;;4920629;28;76082;-68
2021/03/15 09:06:56;;;;;;;;;;;11.30;45.80;;;;;;4933901;28;76359;-62
2021/03/15 09:09:28;;;;;;;;;;;11.40;45.40;;;;;;4929804;28;76135;-75
2021/03/15 09:12:03;;;;;;;;;;;11.50;45.30;;;;;;4925921;28;78218;-73
2021/03/15 09:14:34;;;;;;;;;;;11.50;44.90;;;;;;4936632;28;75714;-74
2021/03/15 09:17:02;;;;;;;;;;;11.70;44.70;;;;;;4927619;28;76530;-63
2021/03/15 09:19:31;;;;;;;;;;;11.70;44.70;;;;;;4922693;28;77285;-63
2021/03/15 09:21:58;;;;;;;;;;;11.90;44.80;;;;;;4937261;28;74773;-62
2021/03/15 09:24:43;;;;;;;;;;;12.10;44.30;;;;;;4938656;28;77499;-61
2021/03/15 09:27:10;;;;;;;;;;;12.20;43.70;;;;;;4922043;28;75668;-62
2021/03/15 09:29:36;;;;;;;;;;;12.40;43.30;;;;;;4931120;28;77326;-73
2021/03/15 09:32:05;;;;;;;;;;;12.40;43.50;;;;;;4927253;28;75979;-64
2021/03/15 09:34:31;;;;;;;;;;;12.60;43.30;;;;;;4928563;28;76408;-70
2021/03/15 09:36:58;;;;;;;;;;;12.90;43.00;;;;;;4924105;28;76333;-76
2021/03/15 09:39:25;;;;;;;;;;;13.10;42.50;;;;;;4920420;28;75653;-62
2021/03/15 09:41:52;;;;;;;;;;;13.30;41.70;;;;;;4936794;28;77067;-63
2021/03/15 09:44:31;;;;;;;;;;;13.60;41.60;;;;;;4935562;28;77552;-67
2021/03/15 09:46:57;;;;;;;;;;;13.80;41.50;;;;;;4923279;28;77544;-72
2021/03/15 09:49:40;;;;;;;;;;;14.20;40.70;;;;;;4927758;28;76676;-77
2021/03/15 09:52:11;;;;;;;;;;;14.30;40.50;;;;;;4927567;28;76520;-63
2021/03/15 09:54:41;;;;;;;;;;;14.60;40.00;;;;;;4918305;28;76484;-64
2021/03/15 09:57:06;;;;;;;;;;;14.90;39.40;;;;;;4935500;28;76158;-67
2021/03/15 09:59:32;;;;;;;;;;;15.00;38.60;;;;;;4923823;28;76601;-65
2021/03/15 10:01:58;;;;;;;;;;;15.00;38.30;;;;;;4918726;28;75774;-61
2021/03/15 10:04:31;;;;;;;;;;;15.00;37.60;;;;;;4922908;28;75970;-61
2021/03/15 10:06:56;;;;;;;;;;;15.00;38.50;;;;;;4934044;28;78588;-62
2021/03/15 10:09:22;;;;;;;;;;;15.30;37.10;;;;;;4932655;28;76312;-62
2021/03/15 10:11:48;;;;;;;;;;;15.40;37.70;;;;;;4953879;27;77004;-70
2021/03/15 10:14:13;;;;;;;;;;;15.70;37.20;;;;;;4937573;28;75446;-61
2021/03/15 10:16:51;;;;;;;;;;;15.90;37.60;;;;;;4924321;28;76995;-61
2021/03/15 10:19:30;;;;;;;;;;;16.20;36.90;;;;;;4918285;28;76611;-65
2021/03/15 10:22:08;;;;;;;;;;;16.50;36.20;;;;;;4921845;28;76168;-65
2021/03/15 10:24:34;;;;;;;;;;;16.90;36.30;;;;;;4924971;28;76636;-70
2021/03/15 10:27:00;;;;;;;;;;;17.20;35.90;;;;;;4921889;28;76428;-63
2021/03/15 10:29:26;;;;;;;;;;;17.40;35.00;;;;;;4932642;28;76300;-62
2021/03/15 10:31:53;;;;;;;;;;;17.60;35.20;;;;;;4928987;28;76503;-61
2021/03/15 10:34:21;;;;;;;;;;;17.90;34.40;;;;;;4935685;28;75836;-67
2021/03/15 10:36:47;;;;;;;;;;;18.10;34.50;;;;;;4926322;28;75912;-62
2021/03/15 10:39:13;;;;;;;;;;;18.40;33.90;;;;;;4934011;28;76542;-69
2021/03/15 10:41:39;;;;;;;;;;;18.70;33.30;;;;;;4926461;28;76270;-62
2021/03/15 10:44:05;;;;;;;;;;;18.90;32.80;;;;;;4928579;28;76232;-69
2021/03/15 10:46:43;;;;;;;;;;;19.20;32.50;;;;;;4919524;28;75569;-66
2021/03/15 10:49:18;;;;;;;;;;;19.50;31.60;;;;;;4918801;28;76156;-67
2021/03/15 10:51:50;;;;;;;;;;;19.80;31.50;;;;;;4917824;28;77394;-62
2021/03/15 10:54:44;;;;;;;;;;;20.10;31.20;;;;;;4920701;28;76383;-67
2021/03/15 10:57:11;;;;;;;;;;;20.70;31.20;;;;;;4927741;28;75684;-64
2021/03/15 10:59:37;;;;;;;;;;;21.40;30.20;;;;;;4931690;28;78342;-65
2021/03/15 11:02:03;;;;;;;;;;;21.90;29.60;;;;;;4932388;28;76456;-62
2021/03/15 11:04:39;;;;;;;;;;;22.30;28.90;;;;;;4919145;28;76536;-66
2021/03/15 11:07:39;;;;;;;;;;;22.90;28.00;;;;;;4931349;28;76562;-77
2021/03/15 11:10:13;;;;;;;;;;;23.40;27.20;;;;;;5003650;28;77450;-65
2021/03/15 11:12:39;;;;;;;;;;;24.20;26.70;;;;;;4945629;28;76776;-65
2021/03/15 11:15:09;;;;;;;;;;;25.00;26.20;;;;;;4933510;28;75957;-62
2021/03/15 11:17:35;;;;;;;;;;;25.40;25.70;;;;;;4919483;28;76163;-66
2021/03/15 11:20:01;;;;;;;;;;;26.20;25.60;;;;;;4920881;28;76623;-62
2021/03/15 11:22:27;;;;;;;;;;;27.10;24.30;;;;;;4923895;28;75782;-63
2021/03/15 11:25:06;;;;;;;;;;;27.90;23.60;;;;;;4927523;28;76807;-68
2021/03/15 11:27:32;;;;;;;;;;;28.90;22.70;;;;;;4932883;28;76078;-68
2021/03/15 11:29:58;;;;;;;;;;;29.10;21.30;;;;;;4931854;28;75936;-63
2021/03/15 11:32:23;;;;;;;;;;;29.50;21.40;;;;;;4933792;28;77129;-74
2021/03/15 11:34:50;;;;;;;;;;;30.60;21.00;;;;;;4916749;28;76592;-72
2021/03/15 11:37:22;;;;;;;;;;;31.60;20.50;;;;;;4917581;28;77294;-67
2021/03/15 11:39:47;;;;;;;;;;;32.50;19.90;;;;;;4933105;28;75776;-62
2021/03/15 11:42:32;;;;;;;;;;;33.20;19.20;;;;;;4928449;28;76610;-62
2021/03/15 11:44:58;;;;;;;;;;;34.10;18.30;;;;;;4932212;28;76086;-63
2021/03/15 11:47:24;;;;;;;;;;;34.70;17.70;;;;;;4933892;28;78374;-62
2021/03/15 11:49:50;;;;;;;;;;;35.20;17.50;;;;;;4927771;28;76358;-63
2021/03/15 11:52:22;;;;;;;;;;;35.70;17.20;;;;;;4924664;28;77981;-62
2021/03/15 11:54:48;;;;;;;;;;;36.40;16.40;;;;;;4935627;28;77021;-62
2021/03/15 11:57:13;;;;;;;;;;;36.90;16.50;;;;;;4935381;28;76520;-66
2021/03/15 11:59:39;;;;;;;;;;;37.50;16.40;;;;;;4937401;28;76620;-64
2021/03/15 12:02:05;;;;;;;;;;;38.10;16.10;;;;;;4938686;28;75423;-63
2021/03/15 12:04:30;;;;;;;;;;;38.80;15.60;;;;;;4931156;28;75715;-62
2021/03/15 12:06:56;;;;;;;;;;;39.00;15.20;;;;;;4919381;28;74816;-62
2021/03/15 12:09:21;;;;;;;;;;;38.90;15.50;;;;;;4923806;28;76748;-62
2021/03/15 12:11:47;;;;;;;;;;;38.90;15.50;;;;;;4934953;28;76345;-62
2021/03/15 12:14:12;;;;;;;;;;;39.60;15.10;;;;;;4926184;28;75971;-61
2021/03/15 12:16:38;;;;;;;;;;;40.60;12.70;;;;;;4924788;28;76198;-63
2021/03/15 12:19:04;;;;;;;;;;;39.50;13.20;;;;;;4931933;28;77534;-62
2021/03/15 12:21:29;;;;;;;;;;;39.00;14.80;;;;;;4923278;28;77882;-63
2021/03/15 12:23:55;;;;;;;;;;;39.30;14.60;;;;;;4919748;28;75827;-62
2021/03/15 12:26:20;;;;;;;;;;;39.30;14.70;;;;;;4920121;28;76643;-61
2021/03/15 12:28:46;;;;;;;;;;;39.40;14.90;;;;;;4929040;28;76399;-63
2021/03/15 12:31:11;;;;;;;;;;;38.60;15.00;;;;;;4933193;28;76454;-64
2021/03/15 12:33:37;;;;;;;;;;;37.40;15.60;;;;;;4938239;28;76163;-64
2021/03/15 12:36:03;;;;;;;;;;;36.70;15.90;;;;;;4932366;28;75784;-61
2021/03/15 12:38:29;;;;;;;;;;;37.20;15.90;;;;;;4929980;28;75910;-61
2021/03/15 12:40:54;;;;;;;;;;;38.40;15.00;;;;;;4923810;28;76594;-64
2021/03/15 12:43:20;;;;;;;;;;;37.90;15.10;;;;;;4928623;28;75767;-61
2021/03/15 12:45:48;;;;;;;;;;;37.00;15.80;;;;;;4933889;28;76432;-63
2021/03/15 12:48:14;;;;;;;;;;;36.90;15.70;;;;;;4926611;28;76545;-63
2021/03/15 12:50:39;;;;;;;;;;;38.00;15.10;;;;;;4933352;28;75708;-66
2021/03/15 12:53:05;;;;;;;;;;;38.50;15.10;;;;;;4937550;28;77885;-63
2021/03/15 12:55:30;;;;;;;;;;;36.90;15.60;;;;;;4918948;28;78066;-60
2021/03/15 12:57:56;;;;;;;;;;;36.10;16.80;;;;;;4932060;28;76133;-61
2021/03/15 13:00:22;;;;;;;;;;;35.50;17.30;;;;;;4934749;28;76228;-62
2021/03/15 13:02:48;;;;;;;;;;;34.40;17.70;;;;;;4921069;28;76433;-62
2021/03/15 13:05:14;;;;;;;;;;;33.90;18.50;;;;;;4922493;28;75277;-61
2021/03/15 13:07:39;;;;;;;;;;;34.30;17.70;;;;;;4936078;28;75913;-62
2021/03/15 13:10:05;;;;;;;;;;;34.20;18.20;;;;;;4928275;28;75921;-62
2021/03/15 13:12:31;;;;;;;;;;;34.40;18.30;;;;;;4932353;28;76953;-60
2021/03/15 13:14:57;;;;;;;;;;;35.70;16.80;;;;;;4930990;28;76373;-65
2021/03/15 13:17:22;;;;;;;;;;;36.70;16.80;;;;;;4934567;28;75465;-61
2021/03/15 13:19:48;;;;;;;;;;;36.10;17.00;;;;;;4922639;28;76628;-61
2021/03/15 13:22:14;;;;;;;;;;;36.40;16.40;;;;;;4936416;28;75503;-62
2021/03/15 13:24:39;;;;;;;;;;;38.00;16.40;;;;;;4925320;28;75883;-61
2021/03/15 13:27:05;;;;;;;;;;;39.50;15.20;;;;;;4932715;28;76412;-63
2021/03/15 13:29:31;;;;;;;;;;;40.00;15.00;;;;;;4930247;28;76352;-62
2021/03/15 13:31:57;;;;;;;;;;;40.20;14.90;;;;;;4930200;28;76354;-61
2021/03/15 13:34:22;;;;;;;;;;;39.90;14.80;;;;;;4926382;28;76027;-62
2021/03/15 13:36:48;;;;;;;;;;;40.90;14.30;;;;;;4922340;28;75348;-63
2021/03/15 13:39:13;;;;;;;;;;;41.70;14.40;;;;;;4947114;28;75669;-63
2021/03/15 13:41:39;;;;;;;;;;;40.20;14.00;;;;;;4951407;28;75132;-63
2021/03/15 13:44:05;;;;;;;;;;;37.80;15.20;;;;;;4951555;28;75127;-64
2021/03/15 13:46:30;;;;;;;;;;;37.40;15.90;;;;;;4953584;28;75113;-66
2021/03/15 13:48:56;;;;;;;;;;;35.80;16.00;;;;;;4953077;28;75241;-68
2021/03/15 13:51:22;;;;;;;;;;;33.70;16.60;;;;;;4951782;28;74415;-62
2021/03/15 13:53:47;;;;;;;;;;;32.50;18.00;;;;;;4951629;28;74659;-62
2021/03/15 13:56:13;;;;;;;;;;;33.50;18.40;;;;;;4951682;28;75323;-65
2021/03/15 13:58:38;;;;;;;;;;;36.20;17.10;;;;;;4949876;28;77689;-64
2021/03/15 14:01:04;;;;;;;;;;;39.20;15.20;;;;;;4951120;28;76571;-62
2021/03/15 14:03:30;;;;;;;;;;;41.20;13.80;;;;;;4951581;28;76499;-67
2021/03/15 14:05:55;;;;;;;;;;;41.80;13.40;;;;;;4949792;28;75678;-62
2021/03/15 14:08:21;;;;;;;;;;;41.60;13.20;;;;;;4952001;28;74568;-66
2021/03/15 14:10:47;;;;;;;;;;;41.60;13.50;;;;;;4950863;28;76335;-64
2021/03/15 14:13:13;;;;;;;;;;;41.80;13.20;;;;;;4950841;28;76400;-65
2021/03/15 14:15:39;;;;;;;;;;;41.10;14.10;;;;;;4951062;28;75284;-65
2021/03/15 14:18:04;;;;;;;;;;;41.00;14.30;;;;;;4949687;28;77458;-69
2021/03/15 14:20:30;;;;;;;;;;;42.00;13.80;;;;;;4950926;28;74832;-64
2021/03/15 14:22:56;;;;;;;;;;;43.00;13.60;;;;;;4947860;28;76427;-65
2021/03/15 14:25:21;;;;;;;;;;;43.40;13.20;;;;;;4949251;28;78260;-67